Bahia - Jorge Amado Airport
SBIL : now visible

Airfield :











YOU CAN JOIN US ON...

 
LOGIN :

Register | Disclaimer

   EN    FR    IT 

 









Legend :    VFR   Marginal VFR   IFR   Intensive IFR   Very Intensive IFR
Visi :
Ceiling :
>= 8 km
>= 3000ft
5 to 8 km
1000 to 3000 ft
1500m to 5 km
500 to 1000 ft
800 to 1500m
200 to 500 ft
< 800m
< 200 ft
Symbols :   Thunderstorms  Fog  Heavy snow  Heavy precipitations  Wind > 20 kt






- Airport Elevation : 15 ft
- IATA code : IOS


SBIL - Bahia - Jorge Amado

CURRENT METAR :
  • 271500Z 04005KT 9999 SCT025 FEW030TCU 30/26 Q1013

EXPIRED METARs :
  • 271400Z 28004KT 9999 FEW025 FEW030TCU 31/25 Q1013

TAF TAF SBIL
Valid from the 27 at 12:00 until the 28 at 00:00 UTC


270900Z 2712/2724 27004KT 6000 FEW025 TX30/2714Z TN28/2720Z
PROB40 2713/2718 03010KT 9000 SCT025 FEW035TCU
BECMG 2719/2721 02008KT FEW025 RMK PAY
SBRE FIR / South America



MET'MAP, your aeronautical weather chart ! - Copyright ORBIFLY December 2007 - Disclaimer

ORBIFLY MET'MAP TEAM :

Programming & Development : Alexandra Zaïnal
Concept & original design : Baudouin d'Aumeries
Assistance for programming : Marc-Olivier Méhu
Technical & hardware support : Manuel Goepfert

Contact : metmap@orbifly.com




SOURCES & CREDITS :

   NOAA       Earth
Advisory